Time;durP1;ratioP1;P1;durP2;ratioP2;P2;SDS_P1;SDS_P2;PMS_P1;PMS_P2;Temp;Humidity;BMP_temperature;BMP_pressure;BME280_temperature;BME280_humidity;BME280_pressure;Samples;Min_cycle;Max_cycle;Signal;HPM_P1;HPM_P2
2022/11/30 00:01:30;;;;;;;7.43;5.73;;;5.20;99.90;;;;;;5031009;28;20191;-58
2022/11/30 00:03:56;;;;;;;9.90;6.07;;;5.20;99.90;;;;;;5021688;28;20191;-58
2022/11/30 00:06:23;;;;;;;8.43;5.70;;;5.20;99.90;;;;;;5017021;28;20663;-58
2022/11/30 00:08:55;;;;;;;8.03;5.33;;;5.20;99.90;;;;;;5027684;28;20827;-57
2022/11/30 00:11:23;;;;;;;11.20;6.60;;;5.20;99.90;;;;;;5006867;28;20812;-58
2022/11/30 00:13:49;;;;;;;8.63;5.60;;;5.20;99.90;;;;;;5018277;28;20419;-58
2022/11/30 00:16:14;;;;;;;8.13;5.50;;;5.20;99.90;;;;;;5033352;28;20437;-58
2022/11/30 00:18:40;;;;;;;8.40;5.70;;;5.10;99.90;;;;;;5031871;28;20449;-58
2022/11/30 00:21:09;;;;;;;9.83;6.23;;;5.20;99.90;;;;;;5032737;28;20191;-60
2022/11/30 00:23:37;;;;;;;8.47;5.70;;;5.20;99.90;;;;;;5033425;28;20171;-58
2022/11/30 00:26:05;;;;;;;9.67;5.87;;;5.10;99.90;;;;;;5009594;28;20446;-58
2022/11/30 00:28:31;;;;;;;9.33;5.97;;;5.20;99.90;;;;;;5032487;28;20457;-59
2022/11/30 00:31:02;;;;;;;7.07;5.33;;;5.20;99.90;;;;;;5032620;28;20442;-58
2022/11/30 00:33:28;;;;;;;10.90;6.30;;;5.20;99.90;;;;;;5031620;28;20517;-58
2022/11/30 00:36:15;;;;;;;9.00;5.27;;;5.20;99.90;;;;;;5032408;28;20435;-59
2022/11/30 00:38:40;;;;;;;6.63;5.07;;;5.20;99.90;;;;;;5025190;28;20451;-59
2022/11/30 00:41:06;;;;;;;7.50;5.17;;;5.20;99.90;;;;;;5032255;28;20441;-58
2022/11/30 00:43:32;;;;;;;9.00;4.80;;;5.10;99.90;;;;;;5033946;28;20191;-57
2022/11/30 00:45:57;;;;;;;10.37;5.47;;;5.10;99.90;;;;;;5033716;28;20194;-59
2022/11/30 00:48:23;;;;;;;9.47;5.63;;;5.10;99.90;;;;;;5012472;28;20205;-58
2022/11/30 00:50:50;;;;;;;10.00;5.97;;;5.10;99.90;;;;;;5032934;28;20172;-58
2022/11/30 00:53:17;;;;;;;8.20;6.47;;;5.10;99.90;;;;;;5025342;28;20863;-59
2022/11/30 00:55:43;;;;;;;12.47;6.93;;;5.10;99.90;;;;;;5019147;28;20438;-59
2022/11/30 00:58:09;;;;;;;7.87;5.70;;;5.10;99.90;;;;;;5035048;28;20437;-58
2022/11/30 01:00:35;;;;;;;19.43;6.87;;;5.10;99.90;;;;;;5049948;28;20491;-58
2022/11/30 01:03:01;;;;;;;11.80;6.37;;;5.10;99.90;;;;;;5029800;28;20180;-58
2022/11/30 01:05:28;;;;;;;12.17;6.50;;;5.10;99.90;;;;;;5027690;28;20652;-59
2022/11/30 01:07:53;;;;;;;11.20;6.43;;;5.10;99.90;;;;;;5039294;28;20458;-58
2022/11/30 01:10:19;;;;;;;11.77;6.70;;;5.10;99.90;;;;;;5025234;28;20450;-58
2022/11/30 01:12:45;;;;;;;11.70;7.30;;;5.10;99.90;;;;;;5034401;28;20176;-58
2022/11/30 01:15:11;;;;;;;10.17;6.90;;;5.10;99.90;;;;;;5031636;28;20417;-58
2022/11/30 01:17:36;;;;;;;15.60;7.70;;;5.10;99.90;;;;;;5035878;28;20194;-58
2022/11/30 01:20:03;;;;;;;17.37;8.47;;;5.10;99.90;;;;;;5024015;28;20207;-58
2022/11/30 01:22:29;;;;;;;13.80;7.80;;;5.10;99.90;;;;;;5031247;28;20218;-58
2022/11/30 01:24:54;;;;;;;13.43;8.07;;;5.10;99.90;;;;;;5009921;28;20504;-59
2022/11/30 01:27:20;;;;;;;15.30;8.80;;;5.00;99.90;;;;;;5029432;28;20186;-58
2022/11/30 01:29:46;;;;;;;14.00;8.67;;;5.10;99.90;;;;;;5030243;28;20218;-58
2022/11/30 01:32:11;;;;;;;12.70;8.73;;;5.00;99.90;;;;;;5032115;28;20187;-58
2022/11/30 01:34:37;;;;;;;13.87;8.43;;;5.00;99.90;;;;;;5028861;28;20182;-58
2022/11/30 01:37:02;;;;;;;17.60;7.67;;;5.00;99.90;;;;;;5027655;28;20580;-58
2022/11/30 01:39:28;;;;;;;19.57;8.37;;;5.00;99.90;;;;;;5024359;28;20212;-58
2022/11/30 01:41:54;;;;;;;17.43;9.63;;;5.10;99.90;;;;;;5031441;28;20241;-58
2022/11/30 01:44:25;;;;;;;13.63;8.80;;;5.00;99.90;;;;;;5023141;28;20187;-59
2022/11/30 01:46:59;;;;;;;12.27;7.60;;;5.10;99.90;;;;;;5020029;28;20184;-59
2022/11/30 01:49:35;;;;;;;20.47;8.77;;;5.00;99.90;;;;;;5025985;28;20540;-58
2022/11/30 01:52:06;;;;;;;12.27;7.90;;;5.10;99.90;;;;;;5032176;28;20410;-58
2022/11/30 01:54:47;;;;;;;14.77;7.63;;;5.10;99.90;;;;;;5039586;28;20424;-58
2022/11/30 01:57:19;;;;;;;14.37;8.60;;;5.10;99.90;;;;;;5029755;28;20430;-59
2022/11/30 01:59:47;;;;;;;13.60;7.63;;;5.10;99.90;;;;;;5030782;28;20471;-59
2022/11/30 02:02:12;;;;;;;10.80;7.03;;;5.10;99.90;;;;;;5022369;28;20478;-58
2022/11/30 02:04:38;;;;;;;13.47;7.10;;;5.10;99.90;;;;;;5030620;28;20450;-58
2022/11/30 02:07:06;;;;;;;13.67;8.10;;;5.10;99.90;;;;;;5031467;28;20195;-59
2022/11/30 02:09:40;;;;;;;13.73;7.43;;;5.10;99.90;;;;;;5027925;28;20207;-58
2022/11/30 02:12:10;;;;;;;13.73;8.57;;;5.10;99.90;;;;;;5033086;28;20414;-58
2022/11/30 02:14:48;;;;;;;13.17;7.37;;;5.10;99.90;;;;;;5030312;28;20427;-59
2022/11/30 02:17:38;;;;;;;12.40;7.57;;;5.10;99.90;;;;;;5028900;28;20437;-58
2022/11/30 02:20:22;;;;;;;11.70;7.23;;;5.10;99.90;;;;;;5023582;28;20473;-58
2022/11/30 02:23:03;;;;;;;10.50;7.27;;;5.10;99.90;;;;;;5031662;28;21060;-59
2022/11/30 02:26:02;;;;;;;11.57;7.37;;;5.10;99.90;;;;;;5032527;28;20422;-58
2022/11/30 02:29:04;;;;;;;11.63;7.37;;;5.10;99.90;;;;;;5027610;28;20462;-58
2022/11/30 02:31:41;;;;;;;11.90;8.10;;;5.10;99.90;;;;;;5031117;28;21068;-59
2022/11/30 02:34:09;;;;;;;11.90;7.50;;;5.10;99.90;;;;;;5028285;28;20445;-58
2022/11/30 02:36:36;;;;;;;11.83;8.10;;;5.10;99.90;;;;;;5023520;28;20506;-58
2022/11/30 02:39:02;;;;;;;11.37;7.60;;;5.10;99.90;;;;;;5015641;28;20467;-58
2022/11/30 02:41:35;;;;;;;11.77;7.90;;;5.10;99.90;;;;;;5025527;28;20439;-58
2022/11/30 02:44:02;;;;;;;12.33;7.00;;;5.10;99.90;;;;;;5020967;28;20988;-58
2022/11/30 02:46:51;;;;;;;13.20;7.23;;;5.10;99.90;;;;;;5022740;28;20493;-58
2022/11/30 02:49:49;;;;;;;14.00;7.87;;;5.10;99.90;;;;;;5027691;28;20853;-59
2022/11/30 02:52:16;;;;;;;5.00;4.33;;;5.10;99.90;;;;;;5017898;28;20426;-58
2022/11/30 02:54:42;;;;;;;5.67;3.90;;;5.10;99.90;;;;;;5025518;28;20427;-58
2022/11/30 02:57:09;;;;;;;5.53;3.70;;;5.10;99.90;;;;;;5029995;28;20417;-58
2022/11/30 02:59:34;;;;;;;4.50;3.30;;;5.10;99.90;;;;;;5030736;28;20461;-58
2022/11/30 03:02:00;;;;;;;6.33;3.30;;;5.10;99.90;;;;;;5010019;28;20436;-58
2022/11/30 03:04:25;;;;;;;6.30;3.63;;;5.10;99.90;;;;;;5023518;28;20195;-58
2022/11/30 03:06:51;;;;;;;3.97;3.10;;;5.00;99.90;;;;;;5032318;28;20207;-58
2022/11/30 03:09:17;;;;;;;3.77;3.30;;;5.00;99.90;;;;;;5028549;28;20211;-58
2022/11/30 03:11:42;;;;;;;3.80;3.13;;;5.00;99.90;;;;;;5023491;28;20177;-58
2022/11/30 03:14:08;;;;;;;4.57;3.23;;;5.00;99.90;;;;;;5028320;28;20179;-58
2022/11/30 03:16:35;;;;;;;4.10;2.97;;;5.00;99.90;;;;;;5012777;28;20179;-58
2022/11/30 03:19:00;;;;;;;3.67;3.10;;;5.00;99.90;;;;;;5021035;28;20287;-57
2022/11/30 03:21:27;;;;;;;3.43;2.93;;;5.00;99.90;;;;;;5021928;28;20428;-59
2022/11/30 03:23:52;;;;;;;6.57;3.00;;;4.90;99.90;;;;;;5027565;28;20213;-59
2022/11/30 03:26:18;;;;;;;3.73;3.30;;;4.90;99.90;;;;;;5028013;28;21008;-59
2022/11/30 03:28:44;;;;;;;3.70;3.30;;;4.90;99.90;;;;;;5025033;28;20785;-60
2022/11/30 03:31:11;;;;;;;4.43;3.13;;;4.80;99.90;;;;;;5027638;28;20176;-58
2022/11/30 03:33:37;;;;;;;3.50;3.20;;;4.80;99.90;;;;;;5023399;28;20227;-59
2022/11/30 03:36:09;;;;;;;4.00;3.50;;;4.80;99.90;;;;;;5021038;28;20438;-59
2022/11/30 03:38:35;;;;;;;4.47;3.50;;;4.80;99.90;;;;;;5022400;28;20469;-59
2022/11/30 03:41:13;;;;;;;9.23;4.00;;;4.80;99.90;;;;;;5013750;28;20458;-58
2022/11/30 03:43:38;;;;;;;3.87;2.90;;;4.80;99.90;;;;;;5025441;28;20488;-59
2022/11/30 03:46:05;;;;;;;4.33;3.47;;;4.80;99.90;;;;;;5019273;28;20799;-59
2022/11/30 03:48:31;;;;;;;4.90;3.90;;;4.80;99.90;;;;;;5027916;28;20224;-58
2022/11/30 03:50:57;;;;;;;4.47;3.70;;;4.80;99.90;;;;;;5028079;28;20473;-59
2022/11/30 03:53:24;;;;;;;5.77;3.90;;;4.80;99.90;;;;;;5001439;28;20433;-58
2022/11/30 03:55:54;;;;;;;4.10;3.23;;;4.80;99.90;;;;;;5028277;28;20438;-58
2022/11/30 03:58:20;;;;;;;4.00;3.60;;;4.80;99.90;;;;;;5025860;28;20804;-58
2022/11/30 04:00:46;;;;;;;4.23;3.80;;;4.80;99.90;;;;;;5028454;28;20490;-58
2022/11/30 04:03:12;;;;;;;4.90;3.80;;;4.80;99.90;;;;;;5021238;28;20526;-59
2022/11/30 04:05:37;;;;;;;7.03;4.00;;;4.80;99.90;;;;;;5028618;28;20175;-58
2022/11/30 04:08:03;;;;;;;4.90;3.83;;;4.80;99.90;;;;;;5036711;28;20195;-58
2022/11/30 04:10:29;;;;;;;6.30;4.03;;;4.80;99.90;;;;;;5025283;28;20752;-58
2022/11/30 04:12:54;;;;;;;4.33;3.43;;;4.80;99.90;;;;;;5033457;28;21368;-58
2022/11/30 04:15:20;;;;;;;4.77;3.77;;;4.80;99.90;;;;;;5033383;28;20203;-58
2022/11/30 04:17:46;;;;;;;4.83;3.77;;;4.80;99.90;;;;;;5025396;28;20668;-58
2022/11/30 04:20:11;;;;;;;4.70;3.60;;;4.80;99.90;;;;;;5027721;28;20195;-58
2022/11/30 04:22:37;;;;;;;6.57;3.40;;;4.80;99.90;;;;;;5028778;28;20179;-58
2022/11/30 04:25:03;;;;;;;3.57;3.27;;;4.80;99.90;;;;;;5023376;28;20180;-58
2022/11/30 04:27:29;;;;;;;3.60;3.30;;;4.80;99.90;;;;;;5028208;28;20165;-58
2022/11/30 04:29:54;;;;;;;5.33;4.03;;;4.80;99.90;;;;;;5027154;28;20214;-58
2022/11/30 04:32:20;;;;;;;4.50;3.60;;;4.80;99.90;;;;;;5027595;28;20542;-58
2022/11/30 04:34:45;;;;;;;3.63;3.30;;;4.80;99.90;;;;;;5028143;28;20255;-58
2022/11/30 04:37:11;;;;;;;4.47;4.07;;;4.80;99.90;;;;;;5022726;28;20585;-57
2022/11/30 04:39:36;;;;;;;4.10;3.67;;;4.80;99.90;;;;;;5035971;28;20195;-57
2022/11/30 04:42:02;;;;;;;3.27;2.97;;;4.80;99.90;;;;;;5026989;28;20187;-58
2022/11/30 04:44:28;;;;;;;3.90;3.40;;;4.80;99.90;;;;;;5028494;28;20180;-58
2022/11/30 04:46:53;;;;;;;3.43;3.13;;;4.80;99.90;;;;;;5024070;28;20677;-57
2022/11/30 04:49:19;;;;;;;3.40;3.00;;;4.80;99.90;;;;;;5027016;28;20214;-57
2022/11/30 04:51:44;;;;;;;4.10;3.10;;;4.80;99.90;;;;;;5025338;28;20180;-58
2022/11/30 04:54:10;;;;;;;3.60;3.00;;;4.80;99.90;;;;;;5022521;28;20176;-58
2022/11/30 04:56:36;;;;;;;2.67;2.47;;;4.80;99.90;;;;;;5027526;28;20188;-58
2022/11/30 04:59:02;;;;;;;3.37;2.80;;;4.80;99.90;;;;;;5021170;28;20222;-57
2022/11/30 05:01:27;;;;;;;3.30;2.80;;;4.80;99.90;;;;;;5026291;28;20191;-57
2022/11/30 05:03:53;;;;;;;3.87;3.10;;;4.80;99.90;;;;;;5025680;28;20434;-55
2022/11/30 05:06:18;;;;;;;4.30;2.90;;;4.80;99.90;;;;;;5010093;28;20230;-59
2022/11/30 05:08:44;;;;;;;5.67;2.60;;;4.80;99.90;;;;;;5021101;28;20280;-60
2022/11/30 05:11:10;;;;;;;3.30;2.60;;;4.80;99.90;;;;;;5030476;28;20180;-60
2022/11/30 05:13:36;;;;;;;4.70;2.97;;;4.80;99.90;;;;;;5030092;28;20183;-59
2022/11/30 05:16:01;;;;;;;2.53;2.33;;;4.80;99.90;;;;;;5025823;28;20484;-59
2022/11/30 05:18:28;;;;;;;5.27;3.07;;;4.80;99.90;;;;;;5029676;28;20176;-59
2022/11/30 05:20:54;;;;;;;3.43;3.10;;;4.80;99.90;;;;;;5027508;28;20183;-61
2022/11/30 05:23:20;;;;;;;3.03;2.73;;;4.80;99.90;;;;;;5025551;28;20525;-60
2022/11/30 05:25:46;;;;;;;3.63;2.73;;;4.80;99.90;;;;;;5018988;28;20180;-59
2022/11/30 05:28:12;;;;;;;4.07;3.20;;;4.80;99.90;;;;;;5027134;28;21118;-57
2022/11/30 05:30:39;;;;;;;4.10;3.20;;;4.80;99.90;;;;;;5025718;28;20519;-59
2022/11/30 05:33:05;;;;;;;5.60;3.60;;;4.80;99.90;;;;;;5029518;28;20487;-57
2022/11/30 05:35:30;;;;;;;7.33;3.60;;;4.80;99.90;;;;;;5018957;28;20423;-60
2022/11/30 05:37:56;;;;;;;3.70;3.37;;;4.70;99.90;;;;;;5028466;28;20563;-55
2022/11/30 05:40:22;;;;;;;4.30;3.73;;;4.70;99.90;;;;;;5017780;28;20210;-60
2022/11/30 05:42:53;;;;;;;3.93;3.47;;;4.70;99.90;;;;;;5017016;28;20266;-58
2022/11/30 05:45:18;;;;;;;5.70;3.63;;;4.70;99.90;;;;;;5018281;28;20253;-58
2022/11/30 05:47:44;;;;;;;6.53;4.60;;;4.70;99.90;;;;;;5023280;28;20524;-58
2022/11/30 05:50:10;;;;;;;5.40;4.20;;;4.70;99.90;;;;;;5016996;28;20199;-58
2022/11/30 05:52:35;;;;;;;4.93;4.30;;;4.70;99.90;;;;;;5022715;28;20180;-57
2022/11/30 05:55:01;;;;;;;6.60;4.63;;;4.70;99.90;;;;;;5016473;28;20343;-58
2022/11/30 05:57:27;;;;;;;4.93;4.13;;;4.70;99.90;;;;;;5019991;28;20190;-57
2022/11/30 05:59:52;;;;;;;5.93;4.80;;;4.70;99.90;;;;;;5016258;28;20677;-58
2022/11/30 06:02:18;;;;;;;6.10;4.17;;;4.70;99.90;;;;;;5025298;28;20213;-58
2022/11/30 06:04:43;;;;;;;5.40;4.43;;;4.70;99.90;;;;;;5023861;28;20194;-58
2022/11/30 06:07:10;;;;;;;6.50;4.60;;;4.70;99.90;;;;;;5028109;28;20183;-57
2022/11/30 06:09:37;;;;;;;7.27;4.87;;;4.70;99.90;;;;;;5022200;28;20211;-57
2022/11/30 06:12:03;;;;;;;6.40;4.97;;;4.70;99.90;;;;;;5029612;28;20449;-58
2022/11/30 06:14:28;;;;;;;5.80;4.67;;;4.70;99.90;;;;;;5024466;28;20430;-60
2022/11/30 06:16:54;;;;;;;8.43;4.93;;;4.70;99.90;;;;;;5027612;28;20176;-60
2022/11/30 06:19:19;;;;;;;7.70;5.33;;;4.70;99.90;;;;;;5025506;28;20200;-60
2022/11/30 06:21:45;;;;;;;7.03;4.90;;;4.70;99.90;;;;;;5025880;28;20605;-57
2022/11/30 06:24:11;;;;;;;6.33;4.90;;;4.70;99.90;;;;;;5035367;28;20244;-58
2022/11/30 06:26:36;;;;;;;6.47;4.60;;;4.70;99.90;;;;;;5026303;28;20215;-58
2022/11/30 06:29:02;;;;;;;6.73;4.80;;;4.70;99.90;;;;;;5027823;28;20226;-58
2022/11/30 06:31:30;;;;;;;6.07;4.80;;;4.70;99.90;;;;;;5022484;28;20172;-59
2022/11/30 06:33:56;;;;;;;7.77;5.17;;;4.70;99.90;;;;;;5025288;28;20207;-60
2022/11/30 06:36:22;;;;;;;9.87;5.53;;;4.80;99.90;;;;;;5010883;28;20465;-59
2022/11/30 06:38:47;;;;;;;9.33;6.17;;;4.70;99.90;;;;;;5028157;28;20490;-58
2022/11/30 06:41:13;;;;;;;10.87;8.07;;;4.70;99.90;;;;;;5031848;28;20183;-58
2022/11/30 06:43:39;;;;;;;17.60;10.77;;;4.80;99.90;;;;;;5028482;28;20685;-57
2022/11/30 06:46:06;;;;;;;21.70;11.73;;;4.70;99.90;;;;;;5011547;28;20273;-60
2022/11/30 06:48:32;;;;;;;21.43;11.63;;;4.70;99.90;;;;;;5010678;28;21633;-57
2022/11/30 06:50:59;;;;;;;23.37;11.27;;;4.70;99.90;;;;;;5025514;28;20462;-60
2022/11/30 06:53:25;;;;;;;22.97;11.83;;;4.70;99.90;;;;;;5028638;28;20426;-59
2022/11/30 06:55:51;;;;;;;20.93;11.73;;;4.70;99.90;;;;;;5030168;28;20926;-59
2022/11/30 06:58:17;;;;;;;23.63;13.50;;;4.80;99.90;;;;;;5027295;28;20434;-57
2022/11/30 07:00:43;;;;;;;26.57;13.37;;;4.70;99.90;;;;;;5029165;28;20452;-57
2022/11/30 07:03:10;;;;;;;25.40;12.23;;;4.70;99.90;;;;;;5029917;28;20461;-59
2022/11/30 07:05:41;;;;;;;31.77;14.63;;;4.70;99.90;;;;;;5021793;28;20425;-58
2022/11/30 07:08:07;;;;;;;29.70;14.13;;;4.70;99.90;;;;;;5026841;28;20463;-58
2022/11/30 07:10:33;;;;;;;27.50;13.70;;;4.70;99.90;;;;;;5029022;28;20827;-57
2022/11/30 07:12:59;;;;;;;31.67;15.10;;;4.70;99.90;;;;;;5009873;28;20644;-58
2022/11/30 07:15:25;;;;;;;26.03;14.03;;;4.70;99.90;;;;;;5021715;28;20186;-58
2022/11/30 07:17:50;;;;;;;30.20;15.50;;;4.70;99.90;;;;;;5025095;28;20426;-58
2022/11/30 07:20:16;;;;;;;27.90;13.73;;;4.70;99.90;;;;;;5026637;28;20203;-57
2022/11/30 07:22:41;;;;;;;31.47;15.23;;;4.70;99.90;;;;;;5027987;28;20259;-58
2022/11/30 07:27:54;;;;;;;30.10;15.40;;;4.70;99.90;;;;;;5024175;28;21027;-57
2022/11/30 07:30:20;;;;;;;27.77;14.33;;;4.70;99.90;;;;;;5011461;28;20501;-58
2022/11/30 07:32:45;;;;;;;30.03;15.10;;;4.70;99.90;;;;;;5026097;28;20422;-58
2022/11/30 07:35:11;;;;;;;34.57;15.90;;;4.70;99.90;;;;;;5011398;28;20403;-58
2022/11/30 07:37:37;;;;;;;37.30;17.73;;;4.70;99.90;;;;;;5029155;28;20660;-58
2022/11/30 07:40:03;;;;;;;37.07;17.03;;;4.70;99.90;;;;;;5024850;28;20202;-58
2022/11/30 07:42:29;;;;;;;31.50;16.33;;;4.70;99.90;;;;;;5028019;28;20171;-58
2022/11/30 07:44:55;;;;;;;34.87;17.73;;;4.70;99.90;;;;;;5026924;28;20513;-58
2022/11/30 07:47:20;;;;;;;43.87;19.17;;;4.70;99.90;;;;;;5026260;28;20504;-58
2022/11/30 07:49:46;;;;;;;43.50;17.80;;;4.70;99.90;;;;;;5026705;28;20203;-57
2022/11/30 07:52:11;;;;;;;37.00;17.20;;;4.70;99.90;;;;;;5028630;28;20262;-58
2022/11/30 07:54:37;;;;;;;36.10;16.37;;;4.70;99.90;;;;;;5006855;28;20784;-58
2022/11/30 07:57:03;;;;;;;40.30;17.70;;;4.60;99.90;;;;;;5009947;28;20685;-57
2022/11/30 07:59:28;;;;;;;34.73;17.97;;;4.70;99.90;;;;;;5024354;28;20211;-58
2022/11/30 08:01:54;;;;;;;29.93;15.60;;;4.60;99.90;;;;;;5009008;28;20259;-58
2022/11/30 08:04:20;;;;;;;33.03;13.60;;;4.60;99.90;;;;;;5021370;28;20230;-58
2022/11/30 08:06:45;;;;;;;24.23;12.57;;;4.60;99.90;;;;;;5024899;28;20179;-58
2022/11/30 08:09:11;;;;;;;22.40;11.50;;;4.60;99.90;;;;;;5015883;28;20216;-56
2022/11/30 08:11:37;;;;;;;26.60;12.77;;;4.60;99.90;;;;;;5024711;28;20187;-58
2022/11/30 08:14:03;;;;;;;22.17;11.97;;;4.50;99.90;;;;;;5008779;28;20437;-58
2022/11/30 08:16:33;;;;;;;22.90;12.63;;;4.50;99.90;;;;;;5025273;28;20179;-56
2022/11/30 08:18:59;;;;;;;22.63;11.93;;;4.50;99.90;;;;;;5018725;28;20454;-58
2022/11/30 08:21:25;;;;;;;22.97;11.30;;;4.50;99.90;;;;;;5026223;28;20441;-58
2022/11/30 08:23:54;;;;;;;18.97;11.20;;;4.40;99.90;;;;;;5024925;28;22583;-57
2022/11/30 08:26:26;;;;;;;22.60;11.87;;;4.40;99.90;;;;;;5027443;28;20432;-57
2022/11/30 08:28:52;;;;;;;18.83;10.93;;;4.40;99.90;;;;;;5023765;28;21000;-57
2022/11/30 08:31:24;;;;;;;22.70;11.27;;;4.40;99.90;;;;;;5023032;28;20437;-57
2022/11/30 08:33:57;;;;;;;19.20;10.13;;;4.30;99.90;;;;;;5030048;28;20433;-57
2022/11/30 08:36:25;;;;;;;21.33;10.10;;;4.30;99.90;;;;;;5031020;28;21141;-61
2022/11/30 08:38:50;;;;;;;18.20;8.73;;;4.40;99.90;;;;;;5023377;28;20457;-57
2022/11/30 08:41:18;;;;;;;16.00;8.07;;;4.40;99.90;;;;;;5028779;28;20438;-58
2022/11/30 08:43:45;;;;;;;13.73;6.90;;;4.50;99.90;;;;;;5011292;28;20319;-58
2022/11/30 08:46:13;;;;;;;17.53;8.87;;;4.40;99.90;;;;;;5026324;28;20443;-58
2022/11/30 08:48:38;;;;;;;20.10;9.23;;;4.40;99.90;;;;;;5028516;28;20470;-58
2022/11/30 08:51:08;;;;;;;18.30;7.87;;;4.40;99.90;;;;;;5030439;28;20484;-58
2022/11/30 08:53:34;;;;;;;15.00;7.30;;;4.40;99.90;;;;;;5033033;28;20171;-57
2022/11/30 08:56:03;;;;;;;14.93;8.07;;;4.50;99.90;;;;;;5031341;28;20491;-58
2022/11/30 08:58:34;;;;;;;13.93;6.97;;;4.50;99.90;;;;;;5009328;28;20454;-58
2022/11/30 09:01:08;;;;;;;8.47;5.07;;;4.50;99.90;;;;;;5025220;28;20515;-57
2022/11/30 09:03:34;;;;;;;11.97;6.30;;;4.50;99.90;;;;;;5024654;28;20479;-59
2022/11/30 09:06:06;;;;;;;11.27;6.17;;;4.50;99.90;;;;;;5025602;28;20438;-58
2022/11/30 09:08:33;;;;;;;10.63;5.80;;;4.50;99.90;;;;;;5025091;28;20830;-58
2022/11/30 09:11:05;;;;;;;9.57;5.67;;;4.60;99.90;;;;;;5027064;28;20434;-58
2022/11/30 09:13:31;;;;;;;9.40;5.70;;;4.50;99.90;;;;;;5009031;28;20425;-58
2022/11/30 09:15:57;;;;;;;8.87;5.30;;;4.50;99.90;;;;;;5031489;28;20541;-58
2022/11/30 09:18:22;;;;;;;9.10;4.67;;;4.60;99.90;;;;;;5028607;28;20188;-58
2022/11/30 09:20:48;;;;;;;7.30;4.97;;;4.60;99.90;;;;;;5025382;28;20180;-59
2022/11/30 09:23:13;;;;;;;5.77;3.90;;;4.60;99.90;;;;;;5027205;28;21101;-59
2022/11/30 09:25:39;;;;;;;5.60;3.90;;;4.60;99.90;;;;;;5030959;28;20214;-58
2022/11/30 09:28:04;;;;;;;6.47;4.10;;;4.60;99.90;;;;;;5019850;28;20184;-59
2022/11/30 09:30:30;;;;;;;7.33;4.50;;;4.70;99.90;;;;;;5033695;28;20237;-58
2022/11/30 09:32:59;;;;;;;7.20;4.80;;;4.70;99.90;;;;;;5027530;28;20183;-59
2022/11/30 09:35:24;;;;;;;7.53;4.50;;;4.80;99.90;;;;;;5031031;28;20207;-59
2022/11/30 09:37:51;;;;;;;10.50;5.00;;;4.90;99.90;;;;;;5019232;28;20462;-58
2022/11/30 09:40:20;;;;;;;8.80;5.43;;;4.90;99.90;;;;;;5024671;28;20254;-59
2022/11/30 09:43:17;;;;;;;9.73;5.90;;;4.90;99.90;;;;;;5025324;28;20482;-58
2022/11/30 09:45:53;;;;;;;8.20;5.30;;;5.00;99.90;;;;;;5027657;28;20465;-58
2022/11/30 09:48:51;;;;;;;8.53;5.37;;;5.00;99.90;;;;;;5024187;28;20553;-58
2022/11/30 09:51:22;;;;;;;6.33;4.50;;;5.00;99.90;;;;;;5000335;28;20481;-59
2022/11/30 09:53:56;;;;;;;8.50;4.37;;;5.00;99.90;;;;;;5021783;28;20466;-58
2022/11/30 09:56:29;;;;;;;6.37;4.20;;;5.00;99.90;;;;;;5006968;28;20495;-59
2022/11/30 09:59:18;;;;;;;3.50;2.90;;;5.00;99.90;;;;;;5023487;28;20473;-58
2022/11/30 10:01:46;;;;;;;5.20;3.70;;;5.00;99.90;;;;;;5029101;28;20439;-58
2022/11/30 10:04:23;;;;;;;7.17;4.37;;;5.00;99.90;;;;;;5019318;28;20431;-59
2022/11/30 10:07:26;;;;;;;10.93;4.73;;;5.10;99.90;;;;;;5025034;28;20513;-58
2022/11/30 10:10:34;;;;;;;7.23;4.90;;;5.10;99.90;;;;;;5023061;28;20473;-56
2022/11/30 10:13:22;;;;;;;7.57;5.27;;;5.10;99.90;;;;;;4980025;28;21123;-58
2022/11/30 10:16:10;;;;;;;7.90;4.83;;;5.10;99.90;;;;;;5024514;28;20785;-60
2022/11/30 10:18:59;;;;;;;8.00;4.57;;;5.10;99.90;;;;;;5028237;28;20496;-61
2022/11/30 10:21:42;;;;;;;7.93;4.43;;;5.20;99.90;;;;;;5012587;28;20439;-60
2022/11/30 10:24:26;;;;;;;5.13;3.50;;;5.20;99.90;;;;;;5028081;28;20525;-60
2022/11/30 10:26:56;;;;;;;6.43;3.97;;;5.20;99.90;;;;;;5029163;28;20426;-60
2022/11/30 10:29:35;;;;;;;6.30;3.53;;;5.30;99.90;;;;;;5027818;28;20474;-60
2022/11/30 10:32:23;;;;;;;6.20;4.30;;;5.30;99.90;;;;;;5025294;28;20442;-59
2022/11/30 10:34:55;;;;;;;5.90;4.13;;;5.30;99.90;;;;;;5028521;28;20419;-60
2022/11/30 10:37:41;;;;;;;7.83;4.70;;;5.40;99.90;;;;;;5024349;28;20427;-60
2022/11/30 10:40:25;;;;;;;7.87;4.87;;;5.40;99.90;;;;;;5028818;28;20550;-60
2022/11/30 10:43:24;;;;;;;6.73;3.97;;;5.40;99.90;;;;;;5011586;28;20436;-60
2022/11/30 10:45:50;;;;;;;5.17;4.03;;;5.40;99.90;;;;;;5030565;28;20426;-60
2022/11/30 10:48:27;;;;;;;5.60;4.13;;;5.40;99.90;;;;;;5028849;28;20540;-60
2022/11/30 10:50:53;;;;;;;5.83;4.23;;;5.40;99.90;;;;;;5024524;28;20794;-60
2022/11/30 10:53:18;;;;;;;6.33;4.40;;;5.40;99.90;;;;;;5025455;28;20443;-60
2022/11/30 10:55:53;;;;;;;6.33;4.37;;;5.40;99.90;;;;;;5012167;28;20180;-61
2022/11/30 10:58:32;;;;;;;7.67;4.10;;;5.40;99.90;;;;;;5030736;28;20254;-61
2022/11/30 11:01:08;;;;;;;6.23;4.13;;;5.50;99.90;;;;;;5031262;28;20568;-60
2022/11/30 11:03:34;;;;;;;4.70;3.37;;;5.50;99.90;;;;;;5028958;28;20445;-61
2022/11/30 11:06:11;;;;;;;6.43;3.77;;;5.60;99.90;;;;;;5025393;28;20927;-61
2022/11/30 11:08:38;;;;;;;3.70;3.30;;;5.60;99.90;;;;;;5027939;28;20461;-61
2022/11/30 11:11:23;;;;;;;6.30;4.27;;;5.60;99.90;;;;;;5013022;28;20438;-61
2022/11/30 11:13:49;;;;;;;4.60;3.37;;;5.70;99.90;;;;;;5026037;28;20430;-60
2022/11/30 11:16:15;;;;;;;3.77;3.37;;;5.70;99.90;;;;;;5032090;28;20423;-61
2022/11/30 11:18:55;;;;;;;6.10;3.53;;;5.60;99.90;;;;;;5029612;28;20180;-61
2022/11/30 11:21:23;;;;;;;3.70;3.10;;;5.60;99.90;;;;;;5021518;28;20488;-61
2022/11/30 11:23:57;;;;;;;4.30;3.47;;;5.60;99.90;;;;;;5026021;28;21138;-61
2022/11/30 11:26:25;;;;;;;5.60;4.33;;;5.50;99.90;;;;;;5024415;28;20956;-61
2022/11/30 11:29:01;;;;;;;7.20;4.33;;;5.50;99.90;;;;;;5028192;28;20564;-60
2022/11/30 11:31:42;;;;;;;5.90;4.10;;;5.50;99.90;;;;;;5023888;28;20914;-60
2022/11/30 11:34:26;;;;;;;11.90;5.50;;;5.40;99.90;;;;;;5024517;28;20434;-60
2022/11/30 11:37:16;;;;;;;9.27;5.20;;;5.40;99.90;;;;;;5029805;28;20423;-61
2022/11/30 11:39:41;;;;;;;9.27;6.10;;;5.40;99.90;;;;;;5017757;28;20473;-60
2022/11/30 11:42:18;;;;;;;11.47;6.30;;;5.50;99.90;;;;;;5030020;28;20430;-60
2022/11/30 11:44:51;;;;;;;10.20;6.40;;;5.60;99.90;;;;;;5027517;28;20660;-61
2022/11/30 11:47:24;;;;;;;8.77;4.70;;;5.60;99.90;;;;;;5020297;28;20549;-61
2022/11/30 11:50:02;;;;;;;10.17;4.83;;;5.70;99.90;;;;;;5025411;28;20592;-60
2022/11/30 11:52:28;;;;;;;15.50;5.80;;;5.70;99.90;;;;;;5025683;28;21122;-57
2022/11/30 11:54:59;;;;;;;10.37;5.60;;;5.60;99.90;;;;;;5032448;28;20437;-57
2022/11/30 11:57:50;;;;;;;10.43;5.73;;;5.50;99.90;;;;;;5025868;28;20196;-57
2022/11/30 12:00:19;;;;;;;8.43;5.63;;;5.50;99.90;;;;;;5020205;28;20506;-57
2022/11/30 12:03:05;;;;;;;9.70;5.70;;;5.40;99.90;;;;;;5024839;28;20842;-61
2022/11/30 12:06:07;;;;;;;12.47;5.43;;;5.40;99.90;;;;;;5009039;28;20470;-60
2022/11/30 12:08:49;;;;;;;11.50;6.30;;;5.40;99.90;;;;;;5014636;28;20463;-60
2022/11/30 12:11:24;;;;;;;10.20;5.67;;;5.30;99.90;;;;;;5012649;28;20434;-60
2022/11/30 12:13:52;;;;;;;7.90;5.10;;;5.30;99.90;;;;;;5023526;28;20426;-60
2022/11/30 12:16:32;;;;;;;9.03;5.23;;;5.30;99.90;;;;;;5022526;28;20438;-61
2022/11/30 12:19:37;;;;;;;9.10;5.73;;;5.20;99.90;;;;;;5027316;28;20442;-60
2022/11/30 12:22:24;;;;;;;7.80;4.70;;;5.10;99.90;;;;;;5014070;28;20434;-60
2022/11/30 12:25:15;;;;;;;6.80;4.87;;;5.10;99.90;;;;;;5005560;28;20442;-59
2022/11/30 12:28:23;;;;;;;10.03;5.50;;;5.00;99.90;;;;;;5003919;28;20427;-60
2022/11/30 12:31:03;;;;;;;10.43;5.77;;;5.00;99.90;;;;;;5016768;28;20455;-60
2022/11/30 12:33:55;;;;;;;9.70;5.97;;;5.00;99.90;;;;;;5023550;28;20514;-60
2022/11/30 12:36:32;;;;;;;12.10;7.07;;;5.00;99.90;;;;;;5020400;28;20524;-58
2022/11/30 12:39:09;;;;;;;13.17;6.50;;;4.90;99.90;;;;;;5020401;28;20477;-59
2022/11/30 12:41:40;;;;;;;11.03;7.30;;;5.00;99.90;;;;;;5021118;28;20434;-59
2022/11/30 12:44:27;;;;;;;12.67;6.60;;;5.00;99.90;;;;;;5007361;28;20435;-58
2022/11/30 12:46:56;;;;;;;11.93;6.97;;;4.90;99.90;;;;;;5023428;28;20428;-58
2022/11/30 12:49:53;;;;;;;13.93;7.70;;;4.90;99.90;;;;;;5026513;28;21000;-59
2022/11/30 12:52:40;;;;;;;13.80;6.70;;;4.90;99.90;;;;;;5011292;28;20451;-60
2022/11/30 12:55:17;;;;;;;11.37;5.83;;;4.90;99.90;;;;;;5018244;28;20422;-59
2022/11/30 12:57:58;;;;;;;12.97;6.30;;;4.80;99.90;;;;;;5022744;28;20430;-58
2022/11/30 13:00:30;;;;;;;9.70;5.90;;;4.80;99.90;;;;;;5009404;28;20454;-58
2022/11/30 13:03:20;;;;;;;9.90;6.00;;;4.80;99.90;;;;;;5020895;28;20438;-58
2022/11/30 13:05:59;;;;;;;13.30;7.00;;;4.70;99.90;;;;;;5025239;28;20509;-59
2022/11/30 13:08:44;;;;;;;12.50;7.10;;;4.70;99.90;;;;;;5020683;28;20454;-61
2022/11/30 13:11:34;;;;;;;9.53;6.60;;;4.70;99.90;;;;;;5015821;28;20485;-62